Time;durP1;ratioP1;P1;durP2;ratioP2;P2;SDS_P1;SDS_P2;PMS_P1;PMS_P2;Temp;Humidity;BMP_temperature;BMP_pressure;BME280_temperature;BME280_humidity;BME280_pressure;Samples;Min_cycle;Max_cycle;Signal;HPM_P1;HPM_P2
2023/06/06 00:00:19;;;;;;;3.13;1.48;;;;;;;;;;2025725;29;20037;-87
2023/06/06 00:01:19;;;;;;;4.20;1.52;;;;;;;;;;2024852;29;20503;-88
2023/06/06 00:02:20;;;;;;;3.47;1.60;;;;;;;;;;2024951;29;20028;-87
2023/06/06 00:03:21;;;;;;;2.38;1.38;;;;;;;;;;2025659;29;20108;-87
2023/06/06 00:04:22;;;;;;;3.80;1.50;;;;;;;;;;2025801;29;20489;-88
2023/06/06 00:05:25;;;;;;;3.30;1.25;;;;;;;;;;2024817;29;20043;-87
2023/06/06 00:06:27;;;;;;;2.80;1.35;;;;;;;;;;2017335;29;20175;-87
2023/06/06 00:07:28;;;;;;;4.28;1.30;;;;;;;;;;2025968;29;20051;-87
2023/06/06 00:08:29;;;;;;;6.53;1.50;;;;;;;;;;2030774;29;20044;-88
2023/06/06 00:09:30;;;;;;;3.72;1.42;;;;;;;;;;2031960;29;20469;-88
2023/06/06 00:10:30;;;;;;;4.25;1.70;;;;;;;;;;2032938;29;20032;-87
2023/06/06 00:11:32;;;;;;;2.80;2.33;;;;;;;;;;2024079;29;20588;-88
2023/06/06 00:12:32;;;;;;;5.18;1.55;;;;;;;;;;2031168;29;20031;-87
2023/06/06 00:13:34;;;;;;;4.40;1.40;;;;;;;;;;2027171;29;20127;-87
2023/06/06 00:14:35;;;;;;;4.47;1.48;;;;;;;;;;2019984;29;20029;-87
2023/06/06 00:15:36;;;;;;;1.70;1.17;;;;;;;;;;2027773;29;20130;-87
2023/06/06 00:16:36;;;;;;;2.50;1.50;;;;;;;;;;2027627;29;20084;-87
2023/06/06 00:17:38;;;;;;;4.57;1.60;;;;;;;;;;2025782;29;20040;-88
2023/06/06 00:18:39;;;;;;;2.85;1.50;;;;;;;;;;2017761;29;20101;-87
2023/06/06 00:19:42;;;;;;;3.58;1.55;;;;;;;;;;2017335;29;20157;-88
2023/06/06 00:20:43;;;;;;;1.95;1.27;;;;;;;;;;2025381;29;20025;-86
2023/06/06 00:21:43;;;;;;;5.65;1.73;;;;;;;;;;2025780;29;20025;-87
2023/06/06 00:22:43;;;;;;;3.67;1.50;;;;;;;;;;2025515;29;20037;-86
2023/06/06 00:23:45;;;;;;;3.25;1.42;;;;;;;;;;2025915;29;20035;-87
2023/06/06 00:24:46;;;;;;;4.22;1.60;;;;;;;;;;2028357;29;20061;-86
2023/06/06 00:25:48;;;;;;;2.65;1.48;;;;;;;;;;2030308;29;20039;-87
2023/06/06 00:26:49;;;;;;;3.13;1.30;;;;;;;;;;2025329;29;20424;-87
2023/06/06 00:27:50;;;;;;;3.10;1.73;;;;;;;;;;2025297;29;20028;-87
2023/06/06 00:28:50;;;;;;;3.35;1.50;;;;;;;;;;2025730;29;20032;-87
2023/06/06 00:29:50;;;;;;;2.45;1.50;;;;;;;;;;2025885;29;20564;-87
2023/06/06 00:30:51;;;;;;;3.80;1.58;;;;;;;;;;2026007;29;20561;-87
2023/06/06 00:31:51;;;;;;;2.22;1.45;;;;;;;;;;2025680;29;20060;-87
2023/06/06 00:32:51;;;;;;;4.07;1.60;;;;;;;;;;2025602;29;20063;-87
2023/06/06 00:33:52;;;;;;;5.10;1.70;;;;;;;;;;2024898;29;20031;-87
2023/06/06 00:34:55;;;;;;;3.50;1.35;;;;;;;;;;2017388;29;20029;-88
2023/06/06 00:35:55;;;;;;;5.75;1.52;;;;;;;;;;2017430;29;20033;-87
2023/06/06 00:36:55;;;;;;;4.40;1.70;;;;;;;;;;2017579;29;20115;-87
2023/06/06 00:37:56;;;;;;;3.22;1.50;;;;;;;;;;2024983;29;20051;-87
2023/06/06 00:38:56;;;;;;;3.05;1.52;;;;;;;;;;2024215;29;20037;-88
2023/06/06 00:39:56;;;;;;;3.72;1.55;;;;;;;;;;2024802;29;20312;-88
2023/06/06 00:40:57;;;;;;;5.25;1.63;;;;;;;;;;2025494;29;20024;-87
2023/06/06 00:41:57;;;;;;;3.63;1.77;;;;;;;;;;2025459;29;20322;-88
2023/06/06 00:42:58;;;;;;;2.95;1.60;;;;;;;;;;2024569;29;20661;-87
2023/06/06 00:43:58;;;;;;;3.53;1.67;;;;;;;;;;2016723;29;20052;-87
2023/06/06 00:44:58;;;;;;;3.35;2.10;;;;;;;;;;2024434;29;20055;-87
2023/06/06 00:45:59;;;;;;;3.55;1.52;;;;;;;;;;2024481;29;20100;-87
2023/06/06 00:47:00;;;;;;;3.30;1.75;;;;;;;;;;2024516;29;20044;-87
2023/06/06 00:48:02;;;;;;;3.30;2.00;;;;;;;;;;2024465;29;20115;-87
2023/06/06 00:49:02;;;;;;;2.92;1.50;;;;;;;;;;2024352;29;20027;-87
2023/06/06 00:50:03;;;;;;;3.42;1.80;;;;;;;;;;2025176;29;20087;-88
2023/06/06 00:51:05;;;;;;;3.08;2.08;;;;;;;;;;2025319;29;20025;-87
2023/06/06 00:52:05;;;;;;;6.10;1.70;;;;;;;;;;2024846;29;20031;-87
2023/06/06 00:53:06;;;;;;;2.78;1.63;;;;;;;;;;2025178;29;20475;-88
2023/06/06 00:54:08;;;;;;;4.07;1.75;;;;;;;;;;2024780;29;20048;-88
2023/06/06 00:55:09;;;;;;;5.25;1.95;;;;;;;;;;2017459;29;20021;-87
2023/06/06 00:56:13;;;;;;;6.32;2.30;;;;;;;;;;2024965;29;20046;-87
2023/06/06 00:57:13;;;;;;;2.75;1.55;;;;;;;;;;2025511;29;20028;-87
2023/06/06 00:58:15;;;;;;;5.25;1.67;;;;;;;;;;2025416;29;20529;-87
2023/06/06 00:59:17;;;;;;;4.18;1.58;;;;;;;;;;2024350;29;20033;-87
2023/06/06 01:00:18;;;;;;;2.00;1.40;;;;;;;;;;2024628;29;20033;-87
2023/06/06 01:01:19;;;;;;;4.38;1.83;;;;;;;;;;2024751;29;20044;-88
2023/06/06 01:02:24;;;;;;;3.90;2.13;;;;;;;;;;2025534;29;20024;-88
2023/06/06 01:03:24;;;;;;;5.38;1.70;;;;;;;;;;2025438;29;20416;-87
2023/06/06 01:04:26;;;;;;;3.40;1.92;;;;;;;;;;2024990;29;20054;-88
2023/06/06 01:05:26;;;;;;;3.65;1.80;;;;;;;;;;2024863;29;20032;-88
2023/06/06 01:06:27;;;;;;;3.60;1.88;;;;;;;;;;2024624;29;20191;-88
2023/06/06 01:07:29;;;;;;;5.45;1.40;;;;;;;;;;2025447;29;20100;-88
2023/06/06 01:08:29;;;;;;;6.60;1.67;;;;;;;;;;2025214;29;20040;-88
2023/06/06 01:09:30;;;;;;;3.05;1.70;;;;;;;;;;2024957;29;20076;-88
2023/06/06 01:10:34;;;;;;;3.58;1.90;;;;;;;;;;2025238;29;20463;-88
2023/06/06 01:11:51;;;;;;;5.63;1.95;;;;;;;;;;2025059;29;20029;-88
2023/06/06 01:13:33;;;;;;;5.28;2.17;;;;;;;;;;2024461;29;20028;-88
2023/06/06 01:14:55;;;;;;;3.08;1.63;;;;;;;;;;2022022;29;20028;-88
2023/06/06 01:16:04;;;;;;;3.53;1.77;;;;;;;;;;2033009;29;20009;-87
2023/06/06 01:17:07;;;;;;;2.67;1.60;;;;;;;;;;2025711;29;20099;-88
2023/06/06 01:18:08;;;;;;;4.78;1.90;;;;;;;;;;2024754;29;20031;-88
2023/06/06 01:19:16;;;;;;;5.35;2.08;;;;;;;;;;2024661;29;20031;-88
2023/06/06 01:20:19;;;;;;;3.17;1.90;;;;;;;;;;2025553;29;20036;-88
2023/06/06 01:21:20;;;;;;;5.43;2.30;;;;;;;;;;2025118;29;20068;-88
2023/06/06 01:22:22;;;;;;;3.45;2.28;;;;;;;;;;2024169;29;20064;-88
2023/06/06 01:23:23;;;;;;;2.95;1.75;;;;;;;;;;2016929;29;20028;-88
2023/06/06 01:24:24;;;;;;;3.15;2.00;;;;;;;;;;2016704;29;20036;-88
2023/06/06 01:25:25;;;;;;;4.40;1.80;;;;;;;;;;2024567;29;20134;-88
2023/06/06 01:26:26;;;;;;;3.35;1.63;;;;;;;;;;2025543;29;20160;-88
2023/06/06 01:27:28;;;;;;;4.75;1.77;;;;;;;;;;2025213;29;20084;-88
2023/06/06 01:28:28;;;;;;;2.53;1.65;;;;;;;;;;2024853;29;20510;-89
2023/06/06 01:29:28;;;;;;;4.65;1.65;;;;;;;;;;2024674;29;20079;-87
2023/06/06 01:30:29;;;;;;;5.22;1.80;;;;;;;;;;2024936;29;20032;-88
2023/06/06 01:31:40;;;;;;;3.83;1.70;;;;;;;;;;2024605;29;20032;-88
2023/06/06 01:32:48;;;;;;;3.85;1.67;;;;;;;;;;2018089;29;20056;-88
2023/06/06 01:34:03;;;;;;;3.42;1.60;;;;;;;;;;2025206;29;20036;-87
2023/06/06 01:35:23;;;;;;;5.40;1.45;;;;;;;;;;2025704;29;20036;-87
2023/06/06 01:36:32;;;;;;;2.88;1.85;;;;;;;;;;2025286;29;20068;-88
2023/06/06 01:37:38;;;;;;;6.15;3.30;;;;;;;;;;2024834;29;20032;-88
2023/06/06 01:38:48;;;;;;;2.80;1.63;;;;;;;;;;1686107;29;10001054;-88
2023/06/06 01:39:55;;;;;;;4.30;2.38;;;;;;;;;;2024985;29;20047;-88
2023/06/06 01:40:58;;;;;;;2.58;1.65;;;;;;;;;;2025707;29;20032;-89
2023/06/06 01:41:59;;;;;;;2.65;1.63;;;;;;;;;;2024939;29;20032;-87
2023/06/06 01:43:02;;;;;;;4.35;1.58;;;;;;;;;;2017193;29;20035;-87
2023/06/06 01:44:06;;;;;;;3.17;1.33;;;;;;;;;;2024790;29;20099;-87
2023/06/06 01:45:07;;;;;;;3.13;1.80;;;;;;;;;;2024512;29;20509;-87
2023/06/06 01:46:09;;;;;;;2.80;1.58;;;;;;;;;;2024846;29;20493;-87
2023/06/06 01:47:11;;;;;;;2.22;1.60;;;;;;;;;;2025579;29;20040;-87
2023/06/06 01:48:12;;;;;;;2.53;1.50;;;;;;;;;;2025487;29;20544;-87
2023/06/06 01:49:13;;;;;;;4.22;1.75;;;;;;;;;;2025094;29;20079;-87
2023/06/06 01:50:16;;;;;;;5.93;1.83;;;;;;;;;;2024401;29;20024;-87
2023/06/06 01:51:16;;;;;;;2.92;1.70;;;;;;;;;;2016729;29;20036;-87
2023/06/06 01:52:17;;;;;;;2.40;1.73;;;;;;;;;;2024446;29;20040;-87
2023/06/06 01:53:18;;;;;;;3.97;1.70;;;;;;;;;;2024972;29;20032;-87
2023/06/06 01:54:19;;;;;;;2.78;1.48;;;;;;;;;;2024399;29;20073;-88
2023/06/06 01:55:20;;;;;;;3.72;1.50;;;;;;;;;;2016643;29;20112;-87
2023/06/06 01:56:24;;;;;;;3.75;1.80;;;;;;;;;;2016435;29;20498;-87
2023/06/06 01:57:25;;;;;;;3.97;2.35;;;;;;;;;;2017104;29;20450;-87
2023/06/06 01:58:26;;;;;;;3.20;2.05;;;;;;;;;;2024062;29;20035;-87
2023/06/06 01:59:26;;;;;;;4.80;2.08;;;;;;;;;;2024524;29;20036;-87
2023/06/06 02:00:27;;;;;;;3.95;1.80;;;;;;;;;;2023881;29;20036;-87
2023/06/06 02:01:28;;;;;;;2.42;1.80;;;;;;;;;;2016283;29;20044;-88
2023/06/06 02:02:29;;;;;;;4.78;1.92;;;;;;;;;;2023830;29;20563;-87
2023/06/06 02:03:30;;;;;;;4.18;1.83;;;;;;;;;;2024091;29;20036;-88
2023/06/06 02:04:30;;;;;;;3.13;1.75;;;;;;;;;;2024617;29;20154;-87
2023/06/06 02:05:31;;;;;;;4.45;1.80;;;;;;;;;;2023748;29;20032;-87
2023/06/06 02:06:32;;;;;;;2.78;1.50;;;;;;;;;;2022025;29;20563;-86
2023/06/06 02:07:34;;;;;;;4.55;1.90;;;;;;;;;;2024403;29;20044;-87
2023/06/06 02:08:35;;;;;;;4.25;1.80;;;;;;;;;;2023893;29;20555;-86
2023/06/06 02:09:35;;;;;;;2.72;1.65;;;;;;;;;;2024116;29;20032;-88
2023/06/06 02:10:36;;;;;;;1.90;1.42;;;;;;;;;;2027788;29;20142;-86
2023/06/06 02:11:36;;;;;;;2.75;1.70;;;;;;;;;;2025051;29;20043;-87
2023/06/06 02:12:37;;;;;;;3.55;1.60;;;;;;;;;;2025024;29;20031;-88
2023/06/06 02:13:37;;;;;;;4.13;1.80;;;;;;;;;;2025185;29;20457;-87
2023/06/06 02:14:37;;;;;;;5.72;1.88;;;;;;;;;;2024621;29;20072;-87
2023/06/06 02:15:38;;;;;;;4.85;1.67;;;;;;;;;;2024227;29;20528;-87
2023/06/06 02:16:39;;;;;;;4.18;2.42;;;;;;;;;;2027763;29;20037;-88
2023/06/06 02:17:40;;;;;;;5.40;1.85;;;;;;;;;;2033170;29;20084;-87
2023/06/06 02:18:44;;;;;;;4.25;1.63;;;;;;;;;;2034401;29;20092;-87
2023/06/06 02:19:44;;;;;;;3.50;1.92;;;;;;;;;;2034800;29;20132;-88
2023/06/06 02:20:45;;;;;;;3.28;1.95;;;;;;;;;;2034914;29;20041;-87
2023/06/06 02:21:47;;;;;;;3.53;1.70;;;;;;;;;;2033251;29;20045;-87
2023/06/06 02:22:47;;;;;;;5.78;1.85;;;;;;;;;;2024291;29;20131;-87
2023/06/06 02:23:48;;;;;;;3.58;1.92;;;;;;;;;;2025023;29;20292;-87
2023/06/06 02:24:49;;;;;;;3.60;1.85;;;;;;;;;;2024704;29;20068;-87
2023/06/06 02:25:50;;;;;;;4.07;1.85;;;;;;;;;;2024486;29;20032;-88
2023/06/06 02:26:54;;;;;;;2.78;1.88;;;;;;;;;;2024183;29;20524;-87
2023/06/06 02:27:55;;;;;;;4.22;1.83;;;;;;;;;;2023701;29;20032;-87
2023/06/06 02:28:56;;;;;;;3.60;1.80;;;;;;;;;;2023625;29;20032;-87
2023/06/06 02:29:57;;;;;;;4.20;1.75;;;;;;;;;;2023671;29;20016;-87
2023/06/06 02:30:57;;;;;;;6.38;3.53;;;;;;;;;;2023788;29;20608;-87
2023/06/06 02:31:57;;;;;;;3.75;1.95;;;;;;;;;;2023519;29;20029;-87
2023/06/06 02:32:58;;;;;;;5.30;2.20;;;;;;;;;;2023507;29;20032;-87
2023/06/06 02:33:58;;;;;;;5.03;2.20;;;;;;;;;;2015964;29;20419;-87
2023/06/06 02:34:59;;;;;;;3.35;1.98;;;;;;;;;;2028335;29;20087;-88
2023/06/06 02:36:00;;;;;;;4.22;1.75;;;;;;;;;;2034113;29;20029;-86
2023/06/06 02:37:02;;;;;;;3.35;1.80;;;;;;;;;;2034130;29;20044;-87
2023/06/06 02:38:02;;;;;;;4.88;2.40;;;;;;;;;;2033423;29;20092;-86
2023/06/06 02:39:05;;;;;;;5.20;1.67;;;;;;;;;;1787534;29;10103972;-86
2023/06/06 02:40:08;;;;;;;3.92;2.15;;;;;;;;;;2028647;29;20382;-87
2023/06/06 02:41:08;;;;;;;3.83;1.90;;;;;;;;;;2024054;29;20036;-88
2023/06/06 02:42:09;;;;;;;3.67;2.33;;;;;;;;;;2023695;29;20036;-88
2023/06/06 02:43:09;;;;;;;3.55;2.45;;;;;;;;;;2024334;29;20033;-86
2023/06/06 02:44:10;;;;;;;3.17;1.85;;;;;;;;;;2024440;29;20036;-88
2023/06/06 02:45:10;;;;;;;3.30;1.75;;;;;;;;;;2024447;29;20091;-88
2023/06/06 02:46:11;;;;;;;4.85;2.20;;;;;;;;;;2023420;29;20057;-86
2023/06/06 02:47:11;;;;;;;3.95;1.88;;;;;;;;;;2015804;29;20031;-88
2023/06/06 02:48:12;;;;;;;4.22;2.00;;;;;;;;;;2015789;29;20039;-88
2023/06/06 02:49:12;;;;;;;4.00;2.45;;;;;;;;;;2015809;29;20033;-86
2023/06/06 02:50:12;;;;;;;3.65;2.08;;;;;;;;;;2023751;29;20101;-88
2023/06/06 02:51:13;;;;;;;2.58;2.20;;;;;;;;;;2023551;29;20406;-88
2023/06/06 02:52:13;;;;;;;3.95;2.00;;;;;;;;;;2017596;29;20470;-87
2023/06/06 02:53:15;;;;;;;2.97;1.90;;;;;;;;;;2023534;29;20025;-87
2023/06/06 02:54:15;;;;;;;4.18;2.08;;;;;;;;;;2015952;29;20036;-87
2023/06/06 02:55:16;;;;;;;3.25;2.30;;;;;;;;;;2015741;29;20115;-87
2023/06/06 02:56:16;;;;;;;3.42;2.10;;;;;;;;;;2023941;29;20037;-86
2023/06/06 02:57:17;;;;;;;3.72;1.98;;;;;;;;;;2028460;29;20056;-87
2023/06/06 02:58:30;;;;;;;4.45;2.13;;;;;;;;;;2023865;29;20033;-87
2023/06/06 02:59:30;;;;;;;6.20;2.30;;;;;;;;;;2017736;29;20248;-87
2023/06/06 03:00:30;;;;;;;4.53;2.22;;;;;;;;;;2023739;29;20043;-87
2023/06/06 03:01:31;;;;;;;5.88;2.47;;;;;;;;;;2023552;29;20039;-86
2023/06/06 03:02:31;;;;;;;6.00;2.33;;;;;;;;;;2023892;29;20044;-86
2023/06/06 03:03:32;;;;;;;4.72;2.40;;;;;;;;;;2024527;29;20033;-87
2023/06/06 03:04:32;;;;;;;5.70;2.10;;;;;;;;;;2024260;29;20339;-87
2023/06/06 03:05:32;;;;;;;5.03;2.28;;;;;;;;;;2024324;29;20115;-87
2023/06/06 03:06:36;;;;;;;4.13;2.10;;;;;;;;;;2024142;29;20469;-86
2023/06/06 03:07:38;;;;;;;6.82;2.33;;;;;;;;;;2024102;29;20028;-86
2023/06/06 03:08:40;;;;;;;5.25;2.17;;;;;;;;;;2024031;29;20064;-86
2023/06/06 03:09:40;;;;;;;2.83;2.28;;;;;;;;;;2023346;29;20580;-86
2023/06/06 03:10:44;;;;;;;3.90;2.30;;;;;;;;;;2023465;29;20028;-86
2023/06/06 03:11:44;;;;;;;3.17;2.50;;;;;;;;;;2024145;29;20028;-87
2023/06/06 03:12:45;;;;;;;3.85;2.28;;;;;;;;;;2023331;29;20025;-86
2023/06/06 03:13:46;;;;;;;5.28;2.30;;;;;;;;;;2023221;29;20028;-87
2023/06/06 03:14:46;;;;;;;6.95;2.60;;;;;;;;;;2023412;29;20039;-86
2023/06/06 03:15:47;;;;;;;3.42;1.92;;;;;;;;;;2023298;29;20464;-87
2023/06/06 03:16:51;;;;;;;3.63;2.53;;;;;;;;;;2023349;29;20028;-86
2023/06/06 03:17:51;;;;;;;5.05;2.60;;;;;;;;;;2023476;29;20060;-86
2023/06/06 03:18:55;;;;;;;8.90;2.30;;;;;;;;;;2023928;29;20036;-87
2023/06/06 03:19:55;;;;;;;6.40;2.63;;;;;;;;;;2023780;29;20029;-86
2023/06/06 03:20:56;;;;;;;5.13;2.25;;;;;;;;;;2024065;29;20099;-86
2023/06/06 03:21:59;;;;;;;6.00;2.28;;;;;;;;;;2023882;29;20438;-86
2023/06/06 03:22:59;;;;;;;4.22;2.28;;;;;;;;;;2023224;29;20024;-86
2023/06/06 03:24:00;;;;;;;3.25;2.08;;;;;;;;;;2023344;29;20091;-86
2023/06/06 03:25:01;;;;;;;3.75;2.60;;;;;;;;;;2023894;29;20024;-86
2023/06/06 03:26:03;;;;;;;4.75;2.47;;;;;;;;;;2023936;29;20029;-87
2023/06/06 03:27:05;;;;;;;4.97;2.30;;;;;;;;;;2023177;29;20033;-86
2023/06/06 03:28:05;;;;;;;3.65;2.33;;;;;;;;;;2023071;29;20024;-86
2023/06/06 03:29:06;;;;;;;4.18;2.30;;;;;;;;;;2023946;29;20041;-86
2023/06/06 03:30:07;;;;;;;5.30;2.47;;;;;;;;;;2023456;29;20046;-87
2023/06/06 03:31:07;;;;;;;4.43;2.38;;;;;;;;;;2023884;29;20413;-86
2023/06/06 03:32:08;;;;;;;3.33;2.20;;;;;;;;;;2024041;29;20025;-86
2023/06/06 03:33:09;;;;;;;4.45;2.13;;;;;;;;;;2023226;29;20564;-86
2023/06/06 03:34:09;;;;;;;5.25;2.50;;;;;;;;;;2023327;29;20091;-86
2023/06/06 03:35:10;;;;;;;5.78;2.13;;;;;;;;;;2023211;29;20100;-87
2023/06/06 03:36:10;;;;;;;5.38;2.75;;;;;;;;;;2024222;29;20099;-86
2023/06/06 03:37:10;;;;;;;4.38;2.40;;;;;;;;;;2023261;29;20053;-86
2023/06/06 03:38:11;;;;;;;6.15;3.47;;;;;;;;;;2023249;29;20032;-86
2023/06/06 03:39:11;;;;;;;9.45;3.35;;;;;;;;;;2023968;29;20471;-86
2023/06/06 03:40:12;;;;;;;5.35;2.92;;;;;;;;;;2023234;29;20028;-86
2023/06/06 03:41:12;;;;;;;6.18;2.50;;;;;;;;;;2023169;29;20482;-86
2023/06/06 03:42:13;;;;;;;4.13;2.58;;;;;;;;;;2023815;29;20108;-86
2023/06/06 03:43:13;;;;;;;6.07;2.40;;;;;;;;;;2023881;29;20029;-86
2023/06/06 03:44:14;;;;;;;4.22;2.88;;;;;;;;;;2023272;29;20548;-86
2023/06/06 03:45:14;;;;;;;4.60;2.45;;;;;;;;;;2023206;29;20072;-86
2023/06/06 03:46:16;;;;;;;6.05;2.83;;;;;;;;;;2023939;29;20468;-86
2023/06/06 03:47:17;;;;;;;4.30;2.20;;;;;;;;;;2025694;29;20112;-84
2023/06/06 03:48:17;;;;;;;4.57;2.30;;;;;;;;;;2027355;29;20565;-87
2023/06/06 03:49:17;;;;;;;3.58;2.33;;;;;;;;;;2021733;29;20032;-87
2023/06/06 03:50:19;;;;;;;5.25;2.50;;;;;;;;;;2015559;29;20287;-86
2023/06/06 03:51:19;;;;;;;4.80;2.92;;;;;;;;;;2015687;29;20100;-87
2023/06/06 03:52:19;;;;;;;4.18;2.92;;;;;;;;;;2015922;29;20021;-87
2023/06/06 03:53:20;;;;;;;4.43;2.40;;;;;;;;;;2016411;29;20521;-87
2023/06/06 03:54:21;;;;;;;7.30;2.80;;;;;;;;;;2015792;29;20148;-86
2023/06/06 03:55:22;;;;;;;6.97;2.85;;;;;;;;;;2015785;29;20037;-86
2023/06/06 03:56:24;;;;;;;6.40;2.70;;;;;;;;;;2015922;29;20170;-86
2023/06/06 03:57:26;;;;;;;5.32;2.80;;;;;;;;;;2015557;29;20064;-86
2023/06/06 03:58:27;;;;;;;4.80;2.70;;;;;;;;;;2015602;29;20040;-86
2023/06/06 03:59:27;;;;;;;4.80;2.55;;;;;;;;;;2015378;29;20413;-86
2023/06/06 04:00:27;;;;;;;4.82;2.70;;;;;;;;;;2016164;29;20490;-86
2023/06/06 04:01:31;;;;;;;6.00;2.35;;;;;;;;;;2016300;29;20077;-87
2023/06/06 04:02:32;;;;;;;3.88;2.40;;;;;;;;;;2016269;29;20029;-87
2023/06/06 04:03:36;;;;;;;6.05;2.53;;;;;;;;;;2016260;29;20088;-86
2023/06/06 04:04:36;;;;;;;4.20;2.45;;;;;;;;;;2016345;29;20033;-87
2023/06/06 04:05:37;;;;;;;2.95;2.00;;;;;;;;;;2016921;29;20482;-87
2023/06/06 04:06:37;;;;;;;4.00;2.42;;;;;;;;;;2017073;29;20401;-86
2023/06/06 04:07:38;;;;;;;5.72;2.60;;;;;;;;;;2016197;29;20497;-87
2023/06/06 04:08:39;;;;;;;4.20;2.58;;;;;;;;;;2016185;29;20040;-87
2023/06/06 04:09:39;;;;;;;4.15;2.47;;;;;;;;;;2016362;29;20029;-87
2023/06/06 04:10:40;;;;;;;3.80;2.17;;;;;;;;;;2015552;29;20021;-87
2023/06/06 04:11:40;;;;;;;4.72;2.47;;;;;;;;;;2015672;29;20077;-87
2023/06/06 04:12:41;;;;;;;3.95;2.30;;;;;;;;;;2016405;29;20462;-87
2023/06/06 04:13:41;;;;;;;4.22;2.47;;;;;;;;;;2016492;29;20036;-87
2023/06/06 04:14:42;;;;;;;7.35;2.40;;;;;;;;;;2016450;29;20117;-87
2023/06/06 04:15:42;;;;;;;6.50;2.38;;;;;;;;;;2016348;29;20485;-87
2023/06/06 04:16:42;;;;;;;5.13;3.13;;;;;;;;;;2015594;29;20097;-87
2023/06/06 04:17:43;;;;;;;5.03;2.65;;;;;;;;;;2007797;29;20048;-86
2023/06/06 04:18:43;;;;;;;4.13;2.33;;;;;;;;;;2007765;29;20072;-87
2023/06/06 04:19:43;;;;;;;7.40;2.55;;;;;;;;;;2007295;29;20586;-87
2023/06/06 04:20:44;;;;;;;5.50;2.15;;;;;;;;;;2015137;29;20036;-86
2023/06/06 04:21:45;;;;;;;6.32;2.42;;;;;;;;;;2014821;29;20025;-87
2023/06/06 04:22:46;;;;;;;4.13;2.10;;;;;;;;;;2015015;29;20064;-87
2023/06/06 04:23:47;;;;;;;4.40;2.22;;;;;;;;;;2014981;29;20124;-86
2023/06/06 04:24:47;;;;;;;5.85;2.63;;;;;;;;;;2014784;29;20276;-86
2023/06/06 04:25:48;;;;;;;6.00;2.60;;;;;;;;;;2015003;29;20494;-87
2023/06/06 04:26:49;;;;;;;9.90;2.53;;;;;;;;;;2016189;29;20693;-86
2023/06/06 04:27:50;;;;;;;5.18;2.35;;;;;;;;;;2015753;29;20061;-86
2023/06/06 04:28:53;;;;;;;5.15;2.50;;;;;;;;;;2015618;29;20029;-87
2023/06/06 04:29:57;;;;;;;5.63;2.80;;;;;;;;;;2015571;29;20025;-87
2023/06/06 04:30:58;;;;;;;6.13;2.38;;;;;;;;;;2015713;29;20048;-87
2023/06/06 04:31:59;;;;;;;3.20;2.50;;;;;;;;;;2015501;29;20474;-87
2023/06/06 04:33:01;;;;;;;2.65;2.38;;;;;;;;;;2015767;29;20025;-87
2023/06/06 04:34:03;;;;;;;8.20;2.50;;;;;;;;;;2015909;29;20021;-87
2023/06/06 04:35:04;;;;;;;3.92;1.88;;;;;;;;;;2015824;29;20109;-87
2023/06/06 04:36:05;;;;;;;3.28;1.83;;;;;;;;;;2015685;29;20084;-87
2023/06/06 04:37:06;;;;;;;5.13;2.05;;;;;;;;;;2015759;29;20025;-87
2023/06/06 04:38:07;;;;;;;3.72;1.70;;;;;;;;;;2019173;29;20044;-85
2023/06/06 04:39:08;;;;;;;4.05;2.00;;;;;;;;;;2009179;29;20033;-88
2023/06/06 04:40:10;;;;;;;3.95;1.80;;;;;;;;;;2007490;29;20051;-87
2023/06/06 04:41:12;;;;;;;3.60;1.73;;;;;;;;;;2015421;29;20048;-87
2023/06/06 04:42:12;;;;;;;4.07;1.50;;;;;;;;;;2017722;29;20017;-89
2023/06/06 04:43:13;;;;;;;5.00;1.50;;;;;;;;;;2017552;29;20052;-86
2023/06/06 04:44:15;;;;;;;2.67;1.52;;;;;;;;;;2025759;29;20040;-86
2023/06/06 04:45:15;;;;;;;2.35;1.55;;;;;;;;;;2026438;29;20041;-87
2023/06/06 04:46:21;;;;;;;5.82;1.60;;;;;;;;;;1679379;29;10242043;-87
2023/06/06 04:47:22;;;;;;;3.88;1.63;;;;;;;;;;2027549;29;20243;-86
2023/06/06 04:48:25;;;;;;;2.55;1.30;;;;;;;;;;2026224;29;20089;-87
2023/06/06 04:49:35;;;;;;;3.47;1.40;;;;;;;;;;2021235;29;20132;-88
2023/06/06 04:50:35;;;;;;;2.92;1.17;;;;;;;;;;2017440;29;20027;-88
2023/06/06 04:51:37;;;;;;;5.75;2.05;;;;;;;;;;2017009;29;20509;-88
2023/06/06 04:52:38;;;;;;;2.92;1.58;;;;;;;;;;2016619;29;20124;-88
2023/06/06 04:53:42;;;;;;;1.85;1.23;;;;;;;;;;2016601;29;20409;-88
2023/06/06 04:54:45;;;;;;;3.28;1.35;;;;;;;;;;2016317;29;20100;-88
2023/06/06 04:55:47;;;;;;;2.58;1.10;;;;;;;;;;2016439;29;20025;-88
2023/06/06 04:56:47;;;;;;;1.73;1.08;;;;;;;;;;2016399;29;20056;-88
2023/06/06 04:57:48;;;;;;;5.05;1.40;;;;;;;;;;2016476;29;20108;-88
2023/06/06 04:58:52;;;;;;;3.00;1.15;;;;;;;;;;2008826;29;20506;-88
2023/06/06 04:59:53;;;;;;;5.35;1.33;;;;;;;;;;2009156;29;20025;-88
2023/06/06 05:00:57;;;;;;;3.03;1.08;;;;;;;;;;2008773;29;20025;-88
2023/06/06 05:01:58;;;;;;;3.92;1.17;;;;;;;;;;2018070;29;20279;-87
2023/06/06 05:02:59;;;;;;;7.95;2.05;;;;;;;;;;2027263;29;20013;-88
2023/06/06 05:03:59;;;;;;;3.80;1.33;;;;;;;;;;2027166;29;20021;-87
2023/06/06 05:05:01;;;;;;;4.95;1.60;;;;;;;;;;2027318;29;20031;-88
2023/06/06 05:06:02;;;;;;;3.53;1.30;;;;;;;;;;2025264;29;20025;-88
2023/06/06 05:07:03;;;;;;;1.98;0.93;;;;;;;;;;2023592;29;20048;-88
2023/06/06 05:08:05;;;;;;;2.38;1.20;;;;;;;;;;2018139;29;20455;-88
2023/06/06 05:09:07;;;;;;;2.33;1.20;;;;;;;;;;2017433;29;20033;-87
2023/06/06 05:10:08;;;;;;;3.03;1.42;;;;;;;;;;2016538;29;20024;-88
2023/06/06 05:11:10;;;;;;;3.50;1.57;;;;;;;;;;1667744;29;10361265;-87
2023/06/06 05:12:12;;;;;;;4.35;1.40;;;;;;;;;;2017371;29;20289;-87
2023/06/06 05:13:12;;;;;;;3.42;1.33;;;;;;;;;;2017484;29;20029;-88
2023/06/06 05:14:13;;;;;;;3.55;1.33;;;;;;;;;;2017127;29;20057;-88
2023/06/06 05:15:13;;;;;;;4.55;1.52;;;;;;;;;;2017413;29;20450;-88
2023/06/06 05:16:13;;;;;;;3.20;1.50;;;;;;;;;;2017225;29;20503;-88
2023/06/06 05:17:17;;;;;;;3.63;1.58;;;;;;;;;;2017409;29;20058;-88
2023/06/06 05:18:20;;;;;;;6.47;1.50;;;;;;;;;;2017278;29;20028;-88
2023/06/06 05:19:21;;;;;;;3.22;1.15;;;;;;;;;;2016308;29;20055;-88
2023/06/06 05:20:23;;;;;;;3.72;1.33;;;;;;;;;;2016266;29;20533;-88
2023/06/06 05:21:24;;;;;;;1.95;1.10;;;;;;;;;;2017333;29;20052;-88
2023/06/06 05:22:24;;;;;;;3.72;1.60;;;;;;;;;;2024052;29;20362;-88
2023/06/06 05:23:25;;;;;;;5.00;1.70;;;;;;;;;;2024303;29;20035;-87
2023/06/06 05:24:25;;;;;;;2.28;1.20;;;;;;;;;;2017203;29;20099;-87
2023/06/06 05:25:26;;;;;;;3.35;1.10;;;;;;;;;;2016446;29;20025;-88
2023/06/06 05:26:26;;;;;;;4.30;1.30;;;;;;;;;;2008688;29;20418;-88
2023/06/06 05:27:26;;;;;;;3.90;1.50;;;;;;;;;;2016360;29;20124;-88
2023/06/06 05:28:30;;;;;;;2.70;1.48;;;;;;;;;;2018014;29;20080;-87
2023/06/06 05:29:31;;;;;;;5.00;1.30;;;;;;;;;;2020134;29;20036;-88
2023/06/06 05:30:31;;;;;;;2.65;1.20;;;;;;;;;;2017485;29;20033;-88
2023/06/06 05:31:33;;;;;;;4.43;1.40;;;;;;;;;;2016793;29;20039;-88
2023/06/06 05:32:34;;;;;;;3.47;1.25;;;;;;;;;;2016468;29;20112;-88
2023/06/06 05:33:40;;;;;;;4.20;1.23;;;;;;;;;;2016126;29;20097;-88
2023/06/06 05:34:40;;;;;;;6.25;1.50;;;;;;;;;;2016983;29;20025;-88
2023/06/06 05:35:41;;;;;;;4.43;1.50;;;;;;;;;;2016675;29;20093;-88
2023/06/06 05:36:42;;;;;;;4.53;1.50;;;;;;;;;;2008680;29;20093;-88
2023/06/06 05:37:42;;;;;;;3.25;1.40;;;;;;;;;;2016166;29;20032;-87
2023/06/06 05:38:43;;;;;;;3.38;1.40;;;;;;;;;;2024050;29;20320;-88
2023/06/06 05:39:43;;;;;;;4.75;1.73;;;;;;;;;;2024403;29;20115;-88
2023/06/06 05:40:43;;;;;;;4.90;1.58;;;;;;;;;;2016361;29;20159;-88
2023/06/06 05:41:47;;;;;;;3.47;1.55;;;;;;;;;;2016019;29;20458;-89
2023/06/06 05:42:47;;;;;;;3.70;1.60;;;;;;;;;;1671479;29;10262325;-88
2023/06/06 05:43:48;;;;;;;3.35;1.50;;;;;;;;;;2016641;29;20029;-88
2023/06/06 05:44:50;;;;;;;3.63;1.92;;;;;;;;;;2016725;29;20506;-88
2023/06/06 05:45:50;;;;;;;3.78;2.20;;;;;;;;;;2016857;29;20418;-88
2023/06/06 05:46:54;;;;;;;11.43;3.08;;;;;;;;;;2016904;29;20040;-89
2023/06/06 05:47:56;;;;;;;4.85;1.42;;;;;;;;;;2016899;29;20052;-88
2023/06/06 05:48:56;;;;;;;2.47;1.38;;;;;;;;;;2016863;29;20332;-88
2023/06/06 05:49:56;;;;;;;3.05;1.30;;;;;;;;;;2016559;29;20040;-88
2023/06/06 05:50:57;;;;;;;3.35;1.98;;;;;;;;;;2016324;29;20035;-89
2023/06/06 05:51:57;;;;;;;6.38;1.60;;;;;;;;;;2016719;29;20112;-89
2023/06/06 05:53:02;;;;;;;4.00;1.50;;;;;;;;;;2015700;29;20044;-89
2023/06/06 05:54:03;;;;;;;2.90;1.27;;;;;;;;;;1680568;29;10001079;-95
2023/06/06 05:55:04;;;;;;;4.40;1.90;;;;;;;;;;2017507;29;20033;-94
2023/06/06 05:56:05;;;;;;;3.28;1.48;;;;;;;;;;2009908;29;20033;-94
2023/06/06 05:57:19;;;;;;;3.92;1.10;;;;;;;;;;2010951;29;20542;-94
2023/06/06 05:58:20;;;;;;;2.40;1.25;;;;;;;;;;2017401;29;20047;-95
2023/06/06 05:59:20;;;;;;;2.88;1.42;;;;;;;;;;2017271;29;20048;-93
2023/06/06 06:00:21;;;;;;;4.28;1.70;;;;;;;;;;2017362;29;20217;-93
2023/06/06 06:01:22;;;;;;;3.75;1.23;;;;;;;;;;2017275;29;20033;-94
2023/06/06 06:02:23;;;;;;;3.85;1.20;;;;;;;;;;2009742;29;20434;-94
2023/06/06 06:03:25;;;;;;;3.42;1.77;;;;;;;;;;2009833;29;20069;-95
2023/06/06 06:04:25;;;;;;;4.20;1.50;;;;;;;;;;2009734;29;20033;-95
2023/06/06 06:05:31;;;;;;;3.70;2.25;;;;;;;;;;2009875;29;20088;-94
2023/06/06 06:06:31;;;;;;;2.60;1.00;;;;;;;;;;2017783;29;20485;-95
2023/06/06 06:07:32;;;;;;;4.05;1.13;;;;;;;;;;1670739;29;10295304;-93
2023/06/06 06:08:34;;;;;;;4.05;1.38;;;;;;;;;;2017572;29;20039;-94
2023/06/06 06:09:35;;;;;;;1.83;1.00;;;;;;;;;;2009872;29;20116;-93